Eielson Air Force Base
PAEI : now visible

Aeroporto :











RITROVATECI SU...

 
LOGIN :

Iscrizione | Disclaimer

   EN    FR    IT 

 









Sommario :    VFR   VFR Marginale   IFR   IFR Intensivo   IFR Molto Intensivo
Visibilità : 
Base nubi : 
>= 8 km
>= 3000ft
5 / 8 km
1000 / 3000 ft
1500m / 5 km
500 / 1000 ft
800 / 1500m
200 / 500 ft
< 800m
< 200 ft
Simboli :   Temporali  Nebbia  Neve Forte  Precipitazioni Forti  Vento > 20 kt






- Altitudine del aeroporto : 547 ft
- Codice IATA : EIL


PAEI - Eielson Air Force Base

ULTIMO METAR :
  • 021056Z 00000KT 10SM BKN100 07/06 A2952 RMK AO2A SLP001 T00710060 $

METARs OBSOLETI :
  • 020956Z 00000KT 10SM BKN070 08/07 A2952 RMK AO2A SLP000 T00820067 $
  • 020856Z 00000KT 10SM SCT075 BKN100 OVC130 09/08 A2951 RMK AO2A SLP997 T00940075 402000058 53004 $

TAF TAF PAEI
Valido dal 02 a 06 ore il 03 a 12 ore UTC


020600Z 0206/0312 VRB06KT 9999 VCTS BKN040CB QNH2946INS
TEMPO 0206/0207 VRB15G25KT 8000 -TSRA
BECMG 0207/0208 VRB06KT 9999 VCSH BKN040 610703 QNH2946INS
BECMG 0214/0215 VRB06KT 9999 NSW FEW040 SCT050 QNH2950INS
BECMG 0219/0220 VRB06KT 4800 -SHRA VCTS BKN040CB QNH2951INS
TEMPO 0220/0301 VRB15G25KT 3200 -TSRA
BECMG 0305/0306 VRB06KT 8000 -SHRA BKN030 OVC040 610705 QNH2961INS TX17/0221Z TN08/0213Z
FIR PAZA / America del Nord



MetMap, La meteo Aeronautica in un colpo d'occhio ! - Copyright ORBIFLY Dicembre 2007 - Disclaimer

ORBIFLY MET'MAP TEAM :

Programmazione e sviluppo : Alexandra Zaïnal
Concezione : Baudouin d'Aumeries
Aiuto per la programmazione : Marc-Olivier Méhu
Supporto tecnico e logistico : Manuel Goepfert
Aiuto per la traduzione : Arnaldo La Scala

Contatto : metmap@orbifly.com




FONTI E CREDITI :

   NOAA       Earth
Advisory